Time;durP1;ratioP1;P1;durP2;ratioP2;P2;SDS_P1;SDS_P2;PMS_P1;PMS_P2;Temp;Humidity;BMP_temperature;BMP_pressure;BME280_temperature;BME280_humidity;BME280_pressure;Samples;Min_cycle;Max_cycle;Signal;HPM_P1;HPM_P2
2023/04/21 00:01:01;;;;;;;17.97;3.50;;;9.60;99.90;;;;;;4178676;28;20447;-65
2023/04/21 00:03:02;;;;;;;13.10;4.20;;;9.50;99.90;;;;;;4178431;28;20033;-66
2023/04/21 00:05:09;;;;;;;17.40;3.67;;;9.50;99.90;;;;;;4178572;28;20479;-63
2023/04/21 00:07:10;;;;;;;13.47;3.37;;;9.40;99.90;;;;;;4178078;28;20435;-63
2023/04/21 00:09:12;;;;;;;12.77;3.37;;;9.40;99.90;;;;;;4188584;28;20028;-64
2023/04/21 00:11:14;;;;;;;15.33;3.80;;;9.30;99.90;;;;;;4194433;28;20024;-63
2023/04/21 00:13:15;;;;;;;8.90;3.40;;;9.30;99.90;;;;;;4195600;28;20764;-66
2023/04/21 00:15:16;;;;;;;11.03;3.40;;;9.20;99.90;;;;;;4194316;28;20320;-63
2023/04/21 00:17:17;;;;;;;18.33;4.40;;;9.20;99.90;;;;;;4194902;28;20032;-64
2023/04/21 00:19:19;;;;;;;13.37;3.27;;;9.20;99.90;;;;;;4194338;28;20533;-66
2023/04/21 00:21:20;;;;;;;19.77;4.77;;;9.20;99.90;;;;;;4194694;28;20549;-64
2023/04/21 00:23:21;;;;;;;17.80;3.00;;;9.20;99.90;;;;;;4178156;28;20049;-67
2023/04/21 00:25:23;;;;;;;13.40;4.20;;;9.20;99.90;;;;;;4179991;28;20045;-66
2023/04/21 00:27:24;;;;;;;12.60;4.40;;;9.10;99.90;;;;;;4185960;28;20045;-66
2023/04/21 00:29:25;;;;;;;12.67;3.47;;;9.10;99.90;;;;;;4178028;28;20551;-66
2023/04/21 00:31:27;;;;;;;13.63;3.40;;;9.20;99.90;;;;;;4159907;28;20080;-65
2023/04/21 00:33:28;;;;;;;10.53;3.57;;;9.30;99.90;;;;;;4177498;28;20063;-64
2023/04/21 00:35:29;;;;;;;9.47;3.20;;;9.30;99.90;;;;;;4178044;28;20115;-63
2023/04/21 00:37:30;;;;;;;13.43;4.10;;;9.30;99.90;;;;;;4178003;28;20037;-67
2023/04/21 00:39:32;;;;;;;13.63;3.43;;;9.30;99.90;;;;;;4178334;28;20029;-66
2023/04/21 00:41:35;;;;;;;15.73;3.70;;;9.30;99.90;;;;;;4177053;28;20416;-64
2023/04/21 00:43:36;;;;;;;8.67;3.27;;;9.30;99.90;;;;;;4163024;28;20072;-67
2023/04/21 00:45:37;;;;;;;14.57;3.67;;;9.20;99.90;;;;;;4194188;28;20024;-64
2023/04/21 00:47:38;;;;;;;14.87;3.63;;;9.20;99.90;;;;;;4195010;28;20094;-66
2023/04/21 00:49:39;;;;;;;9.67;3.37;;;9.20;99.90;;;;;;4193942;28;20480;-65
2023/04/21 00:51:40;;;;;;;14.17;4.10;;;9.10;99.90;;;;;;4194984;28;20444;-64
2023/04/21 00:53:42;;;;;;;13.63;3.70;;;9.10;99.90;;;;;;4193943;28;20079;-64
2023/04/21 00:55:44;;;;;;;11.70;4.27;;;9.20;99.90;;;;;;4195023;28;20032;-64
2023/04/21 00:57:45;;;;;;;13.60;4.23;;;9.20;99.90;;;;;;4193924;28;20025;-66
2023/04/21 00:59:48;;;;;;;12.57;4.37;;;9.10;99.90;;;;;;4194826;28;20040;-67
2023/04/21 01:01:51;;;;;;;10.47;3.43;;;9.10;99.90;;;;;;4175531;28;20029;-62
2023/04/21 01:03:52;;;;;;;13.47;3.60;;;9.10;99.90;;;;;;4194691;28;20024;-67
2023/04/21 01:05:53;;;;;;;14.90;4.03;;;9.10;99.90;;;;;;4194095;28;20432;-66
2023/04/21 01:07:55;;;;;;;15.23;4.30;;;9.10;99.90;;;;;;4194290;28;20032;-65
2023/04/21 01:09:56;;;;;;;18.20;3.83;;;9.10;99.90;;;;;;4194395;28;20024;-64
2023/04/21 01:12:05;;;;;;;15.63;4.00;;;9.10;99.90;;;;;;4193434;28;20033;-62
2023/04/21 01:14:06;;;;;;;15.10;4.13;;;9.10;99.90;;;;;;4194610;28;20024;-67
2023/04/21 01:16:08;;;;;;;12.17;4.43;;;9.00;99.90;;;;;;4193943;28;20090;-65
2023/04/21 01:18:09;;;;;;;16.87;3.80;;;9.00;99.90;;;;;;4194620;28;20024;-67
2023/04/21 01:20:13;;;;;;;12.70;3.90;;;8.90;99.90;;;;;;4190443;28;20465;-66
2023/04/21 01:22:15;;;;;;;13.90;4.07;;;8.90;99.90;;;;;;4178087;28;20057;-66
2023/04/21 01:24:16;;;;;;;11.33;4.57;;;8.90;99.90;;;;;;4177047;28;20649;-65
2023/04/21 01:26:20;;;;;;;17.03;4.33;;;8.90;99.90;;;;;;4177809;28;20049;-64
2023/04/21 01:28:25;;;;;;;15.30;4.77;;;8.90;99.90;;;;;;4177966;28;20036;-62
2023/04/21 01:30:26;;;;;;;14.97;4.17;;;8.90;99.90;;;;;;4181480;28;20032;-66
2023/04/21 01:32:28;;;;;;;13.90;4.23;;;8.80;99.90;;;;;;4180610;28;20037;-65
2023/04/21 01:34:30;;;;;;;21.47;4.60;;;8.80;99.90;;;;;;4190291;28;20040;-67
2023/04/21 01:36:31;;;;;;;11.77;3.80;;;8.80;99.90;;;;;;4194379;28;20354;-65
2023/04/21 01:38:32;;;;;;;19.37;4.10;;;8.80;99.90;;;;;;4181362;28;20428;-66
2023/04/21 01:40:33;;;;;;;23.97;4.80;;;8.70;99.90;;;;;;4179827;28;20033;-66
2023/04/21 01:42:38;;;;;;;21.00;4.60;;;8.70;99.90;;;;;;4181153;28;20570;-68
2023/04/21 01:44:39;;;;;;;24.93;5.17;;;8.60;99.90;;;;;;4192178;28;20647;-67
2023/04/21 01:46:40;;;;;;;12.73;4.30;;;8.60;99.90;;;;;;4197012;28;20044;-68
2023/04/21 01:48:41;;;;;;;19.80;4.40;;;8.50;99.90;;;;;;4185946;28;20076;-65
2023/04/21 01:50:42;;;;;;;15.23;4.70;;;8.50;99.90;;;;;;4180309;28;20028;-67
2023/04/21 01:52:43;;;;;;;25.80;5.30;;;8.40;99.90;;;;;;4181068;28;20037;-66
2023/04/21 01:54:45;;;;;;;16.57;4.50;;;8.40;99.90;;;;;;4180019;28;20033;-66
2023/04/21 01:56:46;;;;;;;24.50;5.33;;;8.40;99.90;;;;;;4180268;28;20049;-66
2023/04/21 01:58:47;;;;;;;18.47;4.53;;;8.30;99.90;;;;;;4180157;28;20075;-66
2023/04/21 02:00:48;;;;;;;16.07;4.70;;;8.30;99.90;;;;;;4181065;28;20094;-66
2023/04/21 02:02:49;;;;;;;10.83;4.40;;;8.30;99.90;;;;;;4188079;28;20055;-66
2023/04/21 02:04:50;;;;;;;16.27;5.37;;;8.40;99.90;;;;;;4196604;28;20109;-66
2023/04/21 02:06:51;;;;;;;24.50;4.87;;;8.40;99.90;;;;;;4196354;28;20494;-66
2023/04/21 02:08:53;;;;;;;16.87;5.10;;;8.40;99.90;;;;;;4197231;28;20037;-66
2023/04/21 02:10:54;;;;;;;11.17;3.97;;;8.40;99.90;;;;;;4193361;28;20059;-66
2023/04/21 02:12:55;;;;;;;17.40;4.43;;;8.40;99.90;;;;;;4180725;28;20086;-66
2023/04/21 02:14:56;;;;;;;14.87;4.40;;;8.40;99.90;;;;;;4180280;28;20489;-65
2023/04/21 02:16:57;;;;;;;13.43;4.57;;;8.40;99.90;;;;;;4180314;28;20083;-66
2023/04/21 02:18:58;;;;;;;16.60;4.10;;;8.40;99.90;;;;;;4180370;28;20458;-66
2023/04/21 02:20:59;;;;;;;20.17;4.47;;;8.40;99.90;;;;;;4180153;28;20051;-66
2023/04/21 02:23:00;;;;;;;20.47;4.60;;;8.40;99.90;;;;;;4181290;28;20048;-66
2023/04/21 02:25:02;;;;;;;17.83;5.67;;;8.40;99.90;;;;;;4161342;28;20041;-64
2023/04/21 02:27:03;;;;;;;16.17;5.00;;;8.40;99.90;;;;;;4179757;28;20045;-66
2023/04/21 02:29:04;;;;;;;12.77;4.20;;;8.40;99.90;;;;;;4193154;28;20066;-64
2023/04/21 02:31:05;;;;;;;11.27;4.50;;;8.40;99.90;;;;;;4196477;28;20037;-64
2023/04/21 02:33:07;;;;;;;17.20;4.50;;;8.40;99.90;;;;;;4193512;28;20078;-65
2023/04/21 02:35:08;;;;;;;19.20;4.63;;;8.40;99.90;;;;;;4186668;28;20024;-65
2023/04/21 02:37:10;;;;;;;12.87;4.73;;;8.30;99.90;;;;;;4178272;28;20029;-66
2023/04/21 02:39:11;;;;;;;19.20;5.17;;;8.30;99.90;;;;;;4187988;28;20078;-64
2023/04/21 02:41:12;;;;;;;13.70;5.40;;;8.30;99.90;;;;;;4191548;28;20024;-65
2023/04/21 02:43:13;;;;;;;9.97;4.07;;;8.30;99.90;;;;;;4197013;28;20150;-66
2023/04/21 02:45:15;;;;;;;21.37;5.13;;;8.30;99.90;;;;;;4183317;28;20036;-66
2023/04/21 02:47:16;;;;;;;18.73;5.67;;;8.30;99.90;;;;;;4180112;28;20037;-65
2023/04/21 02:49:17;;;;;;;17.23;3.57;;;8.30;99.90;;;;;;4179153;28;20497;-66
2023/04/21 02:51:18;;;;;;;19.37;5.13;;;8.40;99.90;;;;;;4179191;28;20033;-65
2023/04/21 02:53:19;;;;;;;15.93;4.70;;;8.40;99.90;;;;;;4180032;28;20025;-65
2023/04/21 02:55:21;;;;;;;19.50;5.00;;;8.40;99.90;;;;;;4179333;28;20032;-66
2023/04/21 02:57:22;;;;;;;16.20;6.13;;;8.30;99.90;;;;;;4174438;28;20102;-65
2023/04/21 02:59:23;;;;;;;12.87;4.60;;;8.30;99.90;;;;;;4195396;28;20028;-66
2023/04/21 03:01:24;;;;;;;11.67;4.77;;;8.30;99.90;;;;;;4196735;28;20625;-66
2023/04/21 03:03:25;;;;;;;26.50;5.50;;;8.30;99.90;;;;;;4195595;28;20105;-65
2023/04/21 03:05:26;;;;;;;14.27;4.73;;;8.30;99.90;;;;;;4196578;28;20064;-65
2023/04/21 03:07:28;;;;;;;14.00;5.33;;;8.30;99.90;;;;;;4195420;28;20082;-64
2023/04/21 03:09:29;;;;;;;13.20;5.43;;;8.20;99.90;;;;;;4196566;28;20124;-64
2023/04/21 03:11:30;;;;;;;20.07;6.03;;;8.20;99.90;;;;;;4195307;28;20094;-65
2023/04/21 03:13:31;;;;;;;13.93;4.50;;;8.20;99.90;;;;;;4196452;28;20025;-65
2023/04/21 03:15:32;;;;;;;12.40;5.03;;;8.20;99.90;;;;;;4195711;28;20034;-65
2023/04/21 03:17:33;;;;;;;19.70;6.10;;;8.10;99.90;;;;;;4196169;28;20021;-66
2023/04/21 03:19:34;;;;;;;13.80;4.57;;;8.20;99.90;;;;;;4195671;28;20025;-65
2023/04/21 03:21:37;;;;;;;18.63;5.63;;;8.10;99.90;;;;;;4195823;28;20538;-65
2023/04/21 03:23:38;;;;;;;14.07;5.40;;;8.20;99.90;;;;;;4195314;28;20040;-67
2023/04/21 03:25:40;;;;;;;11.77;4.80;;;8.10;99.90;;;;;;4195547;28;20032;-66
2023/04/21 03:27:41;;;;;;;14.43;5.13;;;8.20;99.90;;;;;;4195869;28;20040;-65
2023/04/21 03:29:42;;;;;;;14.97;5.80;;;8.20;99.90;;;;;;4176954;28;20032;-65
2023/04/21 03:31:43;;;;;;;16.23;5.87;;;8.20;99.90;;;;;;4196216;28;20028;-62
2023/04/21 03:33:44;;;;;;;15.50;5.13;;;8.20;99.90;;;;;;4183778;28;20481;-63
2023/04/21 03:35:45;;;;;;;10.73;4.67;;;8.20;99.90;;;;;;4179609;28;20067;-65
2023/04/21 03:37:48;;;;;;;12.17;4.80;;;8.20;99.90;;;;;;4178253;28;20102;-64
2023/04/21 03:39:49;;;;;;;17.57;4.60;;;8.30;99.90;;;;;;4180413;28;20086;-65
2023/04/21 03:41:50;;;;;;;16.87;5.10;;;8.30;99.90;;;;;;4178580;28;20033;-65
2023/04/21 03:43:52;;;;;;;17.53;4.90;;;8.30;99.90;;;;;;4179459;28;20083;-64
2023/04/21 03:45:53;;;;;;;18.53;4.37;;;8.30;99.90;;;;;;4185886;28;20032;-65
2023/04/21 03:47:54;;;;;;;12.97;4.70;;;8.40;99.90;;;;;;4193990;28;20082;-64
2023/04/21 03:49:55;;;;;;;19.93;4.50;;;8.40;99.90;;;;;;4183709;28;20422;-64
2023/04/21 03:51:56;;;;;;;13.37;4.33;;;8.50;99.90;;;;;;4194322;28;20442;-65
2023/04/21 03:53:58;;;;;;;15.30;4.47;;;8.50;99.90;;;;;;4190959;28;20071;-64
2023/04/21 03:55:59;;;;;;;16.63;4.53;;;8.50;99.90;;;;;;4178672;28;20423;-65
2023/04/21 03:58:00;;;;;;;20.37;5.33;;;8.50;99.90;;;;;;4178732;28;20472;-63
2023/04/21 04:00:04;;;;;;;11.53;4.57;;;8.50;99.90;;;;;;4194529;28;20108;-66
2023/04/21 04:02:05;;;;;;;14.63;5.30;;;8.50;99.90;;;;;;4185301;28;20025;-66
2023/04/21 04:04:06;;;;;;;17.23;4.83;;;8.50;99.90;;;;;;4177622;28;20443;-66
2023/04/21 04:06:07;;;;;;;14.70;4.53;;;8.50;99.90;;;;;;4179082;28;20102;-66
2023/04/21 04:08:08;;;;;;;18.80;4.83;;;8.50;99.90;;;;;;4177009;28;20131;-65
2023/04/21 04:10:10;;;;;;;21.23;5.47;;;8.50;99.90;;;;;;4178783;28;20060;-66
2023/04/21 04:12:11;;;;;;;13.33;4.77;;;8.50;99.90;;;;;;4177541;28;20062;-66
2023/04/21 04:14:13;;;;;;;11.03;4.20;;;8.50;99.90;;;;;;4178146;28;20091;-67
2023/04/21 04:16:14;;;;;;;12.77;4.07;;;8.50;99.90;;;;;;4178139;28;20033;-64
2023/04/21 04:18:15;;;;;;;14.63;4.80;;;8.50;99.90;;;;;;4179032;28;20446;-64
2023/04/21 04:20:16;;;;;;;22.30;4.80;;;8.60;99.90;;;;;;4177402;28;20562;-66
2023/04/21 04:22:17;;;;;;;15.83;5.40;;;8.60;99.90;;;;;;4194516;28;20446;-67
2023/04/21 04:24:18;;;;;;;19.03;4.77;;;8.60;99.90;;;;;;4193267;28;20032;-64
2023/04/21 04:26:21;;;;;;;12.73;5.33;;;8.60;99.90;;;;;;4191117;28;20078;-67
2023/04/21 04:28:22;;;;;;;14.33;5.20;;;8.60;99.90;;;;;;4194420;28;20177;-67
2023/04/21 04:30:26;;;;;;;16.47;5.73;;;8.60;99.90;;;;;;4191451;28;20036;-68
2023/04/21 04:32:27;;;;;;;13.47;5.53;;;8.60;99.90;;;;;;4194559;28;20038;-64
2023/04/21 04:34:29;;;;;;;24.27;7.67;;;8.50;99.90;;;;;;4193541;28;20045;-65
2023/04/21 04:36:31;;;;;;;21.00;5.60;;;8.60;99.90;;;;;;4195085;28;20129;-66
2023/04/21 04:38:33;;;;;;;16.13;4.97;;;8.60;99.90;;;;;;4192961;28;20044;-63
2023/04/21 04:40:34;;;;;;;19.07;4.73;;;8.60;99.90;;;;;;4194579;28;20020;-65
2023/04/21 04:42:35;;;;;;;17.60;5.60;;;8.60;99.90;;;;;;4176866;28;20455;-65
2023/04/21 04:44:36;;;;;;;15.33;4.47;;;8.70;99.90;;;;;;4180107;28;20037;-65
2023/04/21 04:46:38;;;;;;;16.80;5.03;;;8.70;99.90;;;;;;4177160;28;20045;-66
2023/04/21 04:48:39;;;;;;;15.77;5.07;;;8.70;99.90;;;;;;4178368;28;20037;-64
2023/04/21 04:50:40;;;;;;;17.37;5.20;;;8.70;99.90;;;;;;4182792;28;20025;-67
2023/04/21 04:52:45;;;;;;;16.43;5.93;;;8.70;99.90;;;;;;4179703;28;20038;-67
2023/04/21 04:54:46;;;;;;;15.93;5.03;;;8.70;99.90;;;;;;4167176;28;20095;-65
2023/04/21 04:56:47;;;;;;;15.40;4.97;;;8.70;99.90;;;;;;4193957;28;20558;-64
2023/04/21 04:58:49;;;;;;;16.93;4.83;;;8.70;99.90;;;;;;4158867;28;20041;-64
2023/04/21 05:00:50;;;;;;;20.97;5.97;;;8.70;99.90;;;;;;4191962;28;20392;-65
2023/04/21 05:02:51;;;;;;;19.07;5.00;;;8.70;99.90;;;;;;4192725;28;20526;-66
2023/04/21 05:04:52;;;;;;;14.97;5.23;;;8.80;99.90;;;;;;4181647;28;20029;-66
2023/04/21 05:06:53;;;;;;;17.70;5.40;;;8.80;99.90;;;;;;4176932;28;20115;-72
2023/04/21 05:08:55;;;;;;;16.97;5.20;;;8.80;99.90;;;;;;4175985;28;20041;-64
2023/04/21 05:10:56;;;;;;;12.93;5.43;;;8.80;99.90;;;;;;4177904;28;20089;-64
2023/04/21 05:12:57;;;;;;;21.67;5.93;;;8.80;99.90;;;;;;4176837;28;20432;-66
2023/04/21 05:14:58;;;;;;;16.37;4.97;;;8.80;99.90;;;;;;4160287;28;20057;-63
2023/04/21 05:16:59;;;;;;;18.73;5.90;;;8.80;99.90;;;;;;4177118;28;20165;-65
2023/04/21 05:19:01;;;;;;;17.63;5.13;;;8.80;99.90;;;;;;4177761;28;20078;-64
2023/04/21 05:21:02;;;;;;;16.90;5.47;;;8.80;99.90;;;;;;4158669;28;20037;-66
2023/04/21 05:23:03;;;;;;;20.87;6.87;;;8.80;99.90;;;;;;4177270;28;20122;-66
2023/04/21 05:25:08;;;;;;;23.37;4.87;;;8.90;99.90;;;;;;4176274;28;20124;-65
2023/04/21 05:27:10;;;;;;;17.53;5.23;;;9.00;99.90;;;;;;4177226;28;20037;-66
2023/04/21 05:29:11;;;;;;;19.73;5.80;;;9.00;99.90;;;;;;4180275;28;20029;-66
2023/04/21 05:31:12;;;;;;;23.73;5.23;;;9.10;99.90;;;;;;4185805;28;20101;-65
2023/04/21 05:33:13;;;;;;;12.13;4.00;;;9.10;99.90;;;;;;4189123;28;20029;-63
2023/04/21 05:35:14;;;;;;;11.43;4.70;;;9.10;99.90;;;;;;4180651;28;20037;-65
2023/04/21 05:37:15;;;;;;;14.20;3.93;;;9.10;99.90;;;;;;4189233;28;20090;-64
2023/04/21 05:41:48;;;;;;;12.70;4.00;;;9.20;99.90;;;;;;4845416;22;20061;31
2023/04/21 05:54:47;;;;;;;15.60;3.80;;;9.30;99.90;;;;;;4906135;22;20016;-65
2023/04/21 05:56:48;;;;;;;13.17;4.27;;;9.30;99.90;;;;;;4100910;28;20067;-70
2023/04/21 05:58:49;;;;;;;17.83;5.37;;;9.40;99.90;;;;;;4132118;28;20477;-66
2023/04/21 06:03:01;;;;;;;14.30;4.37;;;9.40;99.90;;;;;;4842486;22;20057;-66
2023/04/21 06:05:02;;;;;;;13.50;4.97;;;9.50;99.90;;;;;;4151402;28;20497;-67
2023/04/21 06:07:09;;;;;;;9.70;4.53;;;9.60;99.90;;;;;;4147316;28;20030;-67
2023/04/21 06:09:10;;;;;;;18.70;4.73;;;9.70;99.90;;;;;;4160191;28;20025;-55
2023/04/21 06:11:11;;;;;;;16.63;4.70;;;9.70;99.90;;;;;;4155703;28;20045;-66
2023/04/21 06:13:12;;;;;;;12.70;4.83;;;9.90;99.90;;;;;;4153729;28;20464;-63
2023/04/21 06:15:13;;;;;;;14.80;4.47;;;10.10;99.90;;;;;;4159590;28;20029;-65
2023/04/21 06:17:17;;;;;;;13.10;4.47;;;10.40;99.90;;;;;;4153557;28;20048;-63
2023/04/21 06:19:19;;;;;;;22.37;5.57;;;10.50;99.90;;;;;;4157836;28;20033;-68
2023/04/21 06:21:20;;;;;;;18.57;5.77;;;10.70;99.90;;;;;;4155738;28;20037;-66
2023/04/21 06:23:21;;;;;;;11.80;4.67;;;10.90;99.90;;;;;;4152856;28;20366;-66
2023/04/21 06:25:22;;;;;;;11.73;4.00;;;11.00;99.90;;;;;;4156110;28;20103;-68
2023/04/21 06:27:23;;;;;;;19.93;5.03;;;11.00;99.90;;;;;;4155222;28;20099;-66
2023/04/21 06:29:24;;;;;;;20.53;4.40;;;11.10;99.90;;;;;;4156641;28;20037;-68
2023/04/21 06:31:25;;;;;;;19.87;4.73;;;11.20;99.90;;;;;;4165839;28;20072;-63
2023/04/21 06:33:27;;;;;;;12.50;4.90;;;11.40;99.90;;;;;;4153892;28;20445;-64
2023/04/21 06:35:29;;;;;;;15.93;4.10;;;11.70;99.90;;;;;;4147684;28;20026;-68
2023/04/21 06:37:30;;;;;;;16.87;4.43;;;11.90;99.90;;;;;;4155953;28;20030;-66
2023/04/21 06:39:31;;;;;;;13.10;4.47;;;12.00;99.90;;;;;;4149996;28;20049;-66
2023/04/21 06:41:32;;;;;;;18.50;4.47;;;12.10;99.90;;;;;;4175519;28;20033;-69
2023/04/21 06:43:34;;;;;;;13.10;4.20;;;12.30;99.90;;;;;;4160557;28;20029;-62
2023/04/21 06:45:35;;;;;;;19.13;3.93;;;12.40;99.90;;;;;;4153684;28;20100;-64
2023/04/21 06:47:36;;;;;;;12.33;4.30;;;12.40;99.90;;;;;;4146851;28;20045;-66
2023/04/21 06:49:37;;;;;;;20.07;4.80;;;12.40;99.90;;;;;;4131893;28;20525;-62
2023/04/21 06:51:38;;;;;;;14.30;3.93;;;12.40;99.90;;;;;;4163036;28;20051;-67
2023/04/21 06:53:39;;;;;;;11.47;3.83;;;12.30;99.90;;;;;;4152522;28;20548;-65
2023/04/21 06:55:41;;;;;;;16.07;3.90;;;12.20;99.90;;;;;;4172199;28;20230;-64
2023/04/21 06:57:42;;;;;;;13.53;4.50;;;12.10;99.90;;;;;;4144299;28;20050;-64
2023/04/21 06:59:43;;;;;;;12.47;4.37;;;12.10;99.90;;;;;;4157895;28;20030;-66
2023/04/21 07:01:44;;;;;;;17.93;5.53;;;12.10;99.90;;;;;;4148532;28;20088;-59
2023/04/21 07:03:45;;;;;;;11.77;4.60;;;12.10;99.90;;;;;;4159131;28;20053;-62
2023/04/21 07:05:46;;;;;;;13.67;4.90;;;12.00;99.90;;;;;;4161333;28;20140;-63
2023/04/21 07:07:48;;;;;;;15.30;4.80;;;12.00;99.90;;;;;;4156690;28;20045;-60
2023/04/21 07:09:49;;;;;;;14.40;4.43;;;12.00;99.90;;;;;;4151061;28;20034;-64
2023/04/21 07:11:50;;;;;;;12.37;4.83;;;12.00;99.90;;;;;;4156935;28;20046;-68
2023/04/21 07:13:51;;;;;;;16.17;5.97;;;12.10;99.90;;;;;;4161315;28;20045;-63
2023/04/21 07:15:52;;;;;;;16.13;5.50;;;12.10;99.90;;;;;;4149749;28;20095;-69
2023/04/21 07:17:53;;;;;;;13.70;6.40;;;12.20;99.90;;;;;;4162841;28;20064;-65
2023/04/21 07:19:54;;;;;;;18.27;5.37;;;12.20;99.90;;;;;;4150864;28;20034;-67
2023/04/21 07:21:57;;;;;;;14.87;4.23;;;12.30;99.90;;;;;;4162436;28;20045;-66
2023/04/21 07:23:58;;;;;;;12.33;4.70;;;12.40;99.90;;;;;;4135241;28;20042;-65
2023/04/21 07:25:59;;;;;;;13.50;3.63;;;12.40;99.90;;;;;;4149904;28;20046;-66
2023/04/21 07:28:02;;;;;;;15.30;4.07;;;12.50;99.90;;;;;;4161114;28;20103;-66
2023/04/21 07:30:04;;;;;;;10.33;3.07;;;12.60;99.90;;;;;;4163095;28;20021;-64
2023/04/21 07:32:05;;;;;;;10.83;3.50;;;12.70;99.90;;;;;;4161410;28;20428;-69
2023/04/21 07:34:06;;;;;;;13.97;3.57;;;12.80;99.90;;;;;;4160060;28;20034;-70
2023/04/21 07:36:08;;;;;;;11.27;2.93;;;12.80;99.90;;;;;;4170224;28;20037;-65
2023/04/21 07:38:09;;;;;;;3.83;2.33;;;13.00;99.90;;;;;;4162258;28;20527;-68
2023/04/21 07:40:10;;;;;;;10.53;2.77;;;13.10;99.90;;;;;;4164045;28;20457;-65
2023/04/21 07:42:11;;;;;;;10.60;2.80;;;13.20;99.90;;;;;;4177393;28;20045;-68
2023/04/21 07:44:12;;;;;;;6.57;2.60;;;13.10;99.90;;;;;;4152535;28;20434;-68
2023/04/21 07:46:14;;;;;;;10.30;2.87;;;13.20;99.90;;;;;;4144387;28;20088;-66
2023/04/21 07:48:16;;;;;;;8.00;2.90;;;13.30;99.90;;;;;;4146495;28;20051;-67
2023/04/21 07:50:18;;;;;;;9.60;2.10;;;13.30;99.90;;;;;;4145163;28;20072;-68
2023/04/21 07:52:19;;;;;;;14.53;3.30;;;13.40;99.90;;;;;;4147643;28;20104;-68
2023/04/21 07:54:20;;;;;;;9.07;3.30;;;13.50;99.90;;;;;;4143413;28;20046;-67
2023/04/21 07:56:21;;;;;;;8.53;2.70;;;13.70;99.90;;;;;;4162598;28;20017;-68
2023/04/21 07:58:22;;;;;;;11.30;3.07;;;13.80;99.90;;;;;;4160061;28;20045;-67
2023/04/21 08:00:24;;;;;;;9.17;2.37;;;13.90;99.80;;;;;;4161360;28;20562;-67
2023/04/21 08:02:25;;;;;;;12.60;2.90;;;14.00;99.40;;;;;;4155948;28;20076;-62
2023/04/21 08:04:26;;;;;;;14.67;3.20;;;14.10;99.30;;;;;;4136091;28;20037;-61
2023/04/21 08:06:27;;;;;;;8.77;2.30;;;14.20;98.90;;;;;;4157831;28;20452;-61
2023/04/21 08:08:28;;;;;;;10.50;3.33;;;14.30;98.50;;;;;;4152475;28;20037;-67
2023/04/21 08:10:29;;;;;;;10.87;2.93;;;14.40;98.40;;;;;;4161071;28;20033;-65
2023/04/21 08:12:31;;;;;;;11.97;2.47;;;14.60;97.90;;;;;;4156348;28;20088;-67
2023/04/21 08:14:32;;;;;;;11.87;3.30;;;14.60;97.60;;;;;;4149207;28;20037;-62
2023/04/21 08:16:33;;;;;;;9.20;2.47;;;14.80;97.40;;;;;;4144440;28;20038;-67
2023/04/21 08:18:34;;;;;;;9.83;2.63;;;15.00;97.20;;;;;;4157406;28;20088;-62
2023/04/21 08:20:35;;;;;;;11.00;2.57;;;15.20;96.70;;;;;;4159356;28;20029;-67
2023/04/21 08:22:37;;;;;;;9.63;2.90;;;15.30;96.40;;;;;;4158176;28;20079;-68
2023/04/21 08:24:38;;;;;;;9.03;2.30;;;15.50;96.00;;;;;;4160639;28;20033;-65
2023/04/21 08:26:39;;;;;;;10.80;2.65;;;15.70;95.50;;;;;;4162302;28;20022;-60
2023/04/21 08:28:40;;;;;;;8.13;2.47;;;15.80;94.60;;;;;;4147937;28;20042;-62
2023/04/21 08:30:42;;;;;;;8.77;2.10;;;15.90;94.00;;;;;;4158673;28;20460;-65
2023/04/21 08:32:43;;;;;;;6.78;2.15;;;15.80;93.40;;;;;;4157606;28;20045;-67
2023/04/21 08:34:44;;;;;;;6.65;2.15;;;15.80;93.10;;;;;;4146056;28;20030;-67
2023/04/21 08:36:48;;;;;;;7.20;1.70;;;15.80;92.90;;;;;;4151689;28;20532;-62
2023/04/21 08:38:50;;;;;;;7.85;2.17;;;15.80;92.50;;;;;;4143870;28;20494;-66
2023/04/21 08:40:51;;;;;;;5.35;1.90;;;15.70;92.00;;;;;;4154207;28;20049;-67
2023/04/21 08:42:52;;;;;;;13.02;3.50;;;15.50;92.00;;;;;;4161236;28;20025;-66
2023/04/21 08:44:54;;;;;;;12.10;2.60;;;15.60;91.90;;;;;;4160096;28;20037;-68
2023/04/21 08:46:58;;;;;;;7.97;2.58;;;15.60;91.60;;;;;;4159672;28;20087;-68
2023/04/21 08:49:00;;;;;;;11.68;3.08;;;15.60;91.40;;;;;;4127801;28;20109;-69
2023/04/21 08:51:01;;;;;;;11.77;2.40;;;15.60;90.90;;;;;;4147548;28;20041;-67
2023/04/21 08:53:02;;;;;;;10.18;2.33;;;15.70;90.70;;;;;;4150593;28;20041;-67
2023/04/21 08:55:06;;;;;;;9.57;2.20;;;15.70;90.30;;;;;;4156429;28;20076;-67
2023/04/21 08:57:07;;;;;;;9.85;2.90;;;15.70;90.20;;;;;;4146902;28;20033;-68
2023/04/21 08:59:08;;;;;;;6.68;2.65;;;15.80;89.70;;;;;;4158086;28;20045;-61
2023/04/21 09:01:10;;;;;;;13.73;3.20;;;16.00;89.20;;;;;;4153774;28;20079;-66
2023/04/21 09:03:11;;;;;;;8.48;2.30;;;16.20;88.70;;;;;;4158942;28;20025;-66
2023/04/21 09:05:24;;;;;;;6.88;2.20;;;16.20;87.80;;;;;;4160260;28;20033;-66
2023/04/21 09:07:31;;;;;;;6.40;2.25;;;16.40;88.10;;;;;;4144684;28;20132;-67
2023/04/21 09:09:32;;;;;;;7.32;2.20;;;16.70;87.60;;;;;;4145177;28;20092;-68
2023/04/21 09:11:33;;;;;;;9.02;3.38;;;16.90;87.40;;;;;;4143942;28;20049;-67
2023/04/21 09:13:35;;;;;;;13.57;2.90;;;16.90;87.30;;;;;;4145020;28;20130;-64
2023/04/21 09:15:41;;;;;;;10.55;2.97;;;17.00;86.70;;;;;;4144429;28;20029;-66
2023/04/21 09:17:44;;;;;;;6.50;2.53;;;17.00;86.40;;;;;;4145461;28;20096;-66
2023/04/21 09:19:45;;;;;;;15.23;3.53;;;17.10;86.60;;;;;;4144480;28;20033;-66
2023/04/21 09:21:47;;;;;;;12.88;3.00;;;17.10;86.40;;;;;;4153647;28;20088;-63
2023/04/21 09:23:51;;;;;;;13.43;2.60;;;17.10;85.60;;;;;;4127395;28;20042;-67
2023/04/21 09:25:53;;;;;;;6.95;2.10;;;16.80;85.40;;;;;;4145112;28;20502;-67
2023/04/21 09:27:54;;;;;;;17.13;3.40;;;16.60;85.10;;;;;;4144539;28;20061;-67
2023/04/21 09:30:05;;;;;;;10.43;3.10;;;16.50;85.50;;;;;;4163197;28;20029;-61
2023/04/21 09:32:11;;;;;;;6.63;2.53;;;16.40;85.40;;;;;;4155204;28;20037;-68
2023/04/21 09:34:18;;;;;;;15.38;3.42;;;16.30;85.50;;;;;;4151400;28;20096;-67
2023/04/21 09:36:25;;;;;;;13.80;3.03;;;16.40;85.50;;;;;;4160481;28;20102;-66
2023/04/21 09:38:26;;;;;;;8.00;2.40;;;16.40;85.90;;;;;;4154927;28;20050;-67
2023/04/21 09:40:29;;;;;;;10.70;1.92;;;16.50;86.10;;;;;;4144864;28;20038;-67
2023/04/21 09:42:32;;;;;;;9.15;2.38;;;16.60;86.00;;;;;;4143968;28;20083;-67
2023/04/21 09:44:33;;;;;;;7.13;2.33;;;16.50;85.20;;;;;;4159135;28;20033;-67
2023/04/21 09:46:35;;;;;;;10.00;2.70;;;16.50;85.60;;;;;;4159871;28;20121;-66
2023/04/21 09:48:42;;;;;;;12.30;2.35;;;16.70;86.00;;;;;;4161073;28;20092;-60
2023/04/21 09:50:46;;;;;;;8.60;2.80;;;16.90;85.80;;;;;;4157675;28;20095;-64
2023/04/21 09:52:50;;;;;;;8.40;2.30;;;17.00;84.90;;;;;;4159154;28;20045;-61
2023/04/21 09:54:59;;;;;;;6.55;2.05;;;17.20;84.30;;;;;;4154493;28;20083;-66
2023/04/21 09:57:04;;;;;;;14.35;2.58;;;17.30;83.60;;;;;;4155705;28;20477;-61
2023/04/21 09:59:09;;;;;;;7.20;3.08;;;17.40;83.60;;;;;;4146223;28;20088;-65
2023/04/21 10:01:12;;;;;;;13.48;2.88;;;17.40;83.60;;;;;;4147216;28;20030;-68
2023/04/21 10:03:16;;;;;;;7.25;3.30;;;17.40;83.70;;;;;;4162197;28;20025;-62
2023/04/21 10:05:17;;;;;;;9.52;2.90;;;17.60;83.50;;;;;;4164183;28;20076;-67
2023/04/21 10:07:18;;;;;;;9.10;2.47;;;17.60;83.20;;;;;;4161831;28;20038;-67
2023/04/21 10:09:24;;;;;;;10.52;2.40;;;17.70;82.50;;;;;;4152329;28;20555;-68
2023/04/21 10:11:25;;;;;;;13.82;2.53;;;17.70;81.70;;;;;;4177085;28;20094;-64
2023/04/21 10:13:27;;;;;;;5.05;2.80;;;17.60;82.30;;;;;;4151239;28;20485;-67
2023/04/21 10:15:34;;;;;;;11.25;3.10;;;17.60;81.70;;;;;;4163842;28;20026;-67
2023/04/21 10:17:38;;;;;;;11.90;3.25;;;17.60;82.10;;;;;;4147905;28;20050;-61
2023/04/21 10:19:48;;;;;;;12.23;3.20;;;17.50;81.90;;;;;;4163651;28;20045;-66
2023/04/21 10:21:50;;;;;;;;;;;17.60;81.70;;;;;;4161106;28;20037;-67
2023/04/21 10:23:52;;;;;;;11.57;2.72;;;17.60;81.20;;;;;;4163556;28;19909;-68
2023/04/21 10:26:00;;;;;;;7.22;2.88;;;17.60;81.50;;;;;;4162819;28;20026;-68
2023/04/21 10:28:05;;;;;;;10.15;3.75;;;17.50;80.80;;;;;;4162063;28;20431;-67
2023/04/21 10:30:22;;;;;;;10.40;2.75;;;17.40;80.80;;;;;;4145944;28;20050;-68
2023/04/21 10:32:37;;;;;;;11.50;3.17;;;17.40;79.70;;;;;;4148600;28;20425;-63
2023/04/21 10:34:40;;;;;;;8.15;2.40;;;17.40;79.80;;;;;;4149242;28;20081;-61
2023/04/21 10:36:44;;;;;;;8.85;2.90;;;17.50;80.30;;;;;;4152812;28;20054;-67
2023/04/21 10:38:55;;;;;;;10.52;3.72;;;17.60;79.80;;;;;;4151429;28;20049;-67
2023/04/21 10:41:27;;;;;;;10.35;2.60;;;17.50;79.60;;;;;;4158284;28;20107;-67
2023/04/21 10:43:45;;;;;;;11.48;3.17;;;17.50;77.80;;;;;;4160556;28;20389;-69
2023/04/21 10:45:47;;;;;;;10.52;3.08;;;17.60;78.30;;;;;;4163448;28;20477;-68
2023/04/21 10:47:50;;;;;;;7.80;2.95;;;17.60;78.80;;;;;;4162087;28;20077;-67
2023/04/21 10:49:51;;;;;;;6.13;2.70;;;17.60;78.50;;;;;;4163763;28;20119;-71